sensor_id;sensor_type;location;lat;lon;timestamp;temperature;humidity
13529;DHT22;4419;50.882;4.718;2022-08-16T00:01:52;22.20;99.90
13529;DHT22;4419;50.882;4.718;2022-08-16T00:04:18;22.30;99.90
13529;DHT22;4419;50.882;4.718;2022-08-16T00:06:43;22.20;99.90
13529;DHT22;4419;50.882;4.718;2022-08-16T00:09:09;22.20;99.90
13529;DHT22;4419;50.882;4.718;2022-08-16T00:11:35;22.10;99.90
13529;DHT22;4419;50.882;4.718;2022-08-16T00:14:01;22.00;99.90
13529;DHT22;4419;50.882;4.718;2022-08-16T00:16:28;22.10;99.90
13529;DHT22;4419;50.882;4.718;2022-08-16T00:18:56;22.00;99.90
13529;DHT22;4419;50.882;4.718;2022-08-16T00:21:41;22.00;99.90
13529;DHT22;4419;50.882;4.718;2022-08-16T00:24:07;22.00;99.90
13529;DHT22;4419;50.882;4.718;2022-08-16T00:26:33;21.90;99.90
13529;DHT22;4419;50.882;4.718;2022-08-16T00:28:58;21.90;99.90
13529;DHT22;4419;50.882;4.718;2022-08-16T00:31:24;21.90;99.90
13529;DHT22;4419;50.882;4.718;2022-08-16T00:33:49;21.80;99.90
13529;DHT22;4419;50.882;4.718;2022-08-16T00:36:15;21.80;99.90
13529;DHT22;4419;50.882;4.718;2022-08-16T00:39:00;21.80;99.90
13529;DHT22;4419;50.882;4.718;2022-08-16T00:41:27;21.90;99.90
13529;DHT22;4419;50.882;4.718;2022-08-16T00:43:53;21.80;99.90
13529;DHT22;4419;50.882;4.718;2022-08-16T00:48:44;21.90;99.90
13529;DHT22;4419;50.882;4.718;2022-08-16T00:51:11;21.80;99.90
13529;DHT22;4419;50.882;4.718;2022-08-16T00:53:37;21.90;99.90
13529;DHT22;4419;50.882;4.718;2022-08-16T00:56:05;21.80;99.90
13529;DHT22;4419;50.882;4.718;2022-08-16T00:58:34;21.70;99.90
13529;DHT22;4419;50.882;4.718;2022-08-16T01:01:00;21.70;99.90
13529;DHT22;4419;50.882;4.718;2022-08-16T01:03:26;21.70;99.90
13529;DHT22;4419;50.882;4.718;2022-08-16T01:05:52;21.70;99.90
13529;DHT22;4419;50.882;4.718;2022-08-16T01:08:19;21.60;99.90
13529;DHT22;4419;50.882;4.718;2022-08-16T01:10:46;21.60;99.90
13529;DHT22;4419;50.882;4.718;2022-08-16T01:13:21;21.60;99.90
13529;DHT22;4419;50.882;4.718;2022-08-16T01:15:53;21.50;99.90
13529;DHT22;4419;50.882;4.718;2022-08-16T01:18:20;21.60;99.90
13529;DHT22;4419;50.882;4.718;2022-08-16T01:20:55;21.60;99.90
13529;DHT22;4419;50.882;4.718;2022-08-16T01:23:29;21.50;99.90
13529;DHT22;4419;50.882;4.718;2022-08-16T01:25:56;21.40;99.90
13529;DHT22;4419;50.882;4.718;2022-08-16T01:28:23;21.40;99.90
13529;DHT22;4419;50.882;4.718;2022-08-16T01:30:51;21.30;99.90
13529;DHT22;4419;50.882;4.718;2022-08-16T01:33:18;21.20;99.90
13529;DHT22;4419;50.882;4.718;2022-08-16T01:35:47;21.20;99.90
13529;DHT22;4419;50.882;4.718;2022-08-16T01:38:19;21.30;99.90
13529;DHT22;4419;50.882;4.718;2022-08-16T01:40:47;21.30;99.90
13529;DHT22;4419;50.882;4.718;2022-08-16T01:43:13;21.30;99.90
13529;DHT22;4419;50.882;4.718;2022-08-16T01:45:38;21.40;99.90
13529;DHT22;4419;50.882;4.718;2022-08-16T01:48:04;21.40;99.90
13529;DHT22;4419;50.882;4.718;2022-08-16T01:50:30;21.30;99.90
13529;DHT22;4419;50.882;4.718;2022-08-16T01:52:56;21.30;99.90
13529;DHT22;4419;50.882;4.718;2022-08-16T01:55:22;21.20;99.90
13529;DHT22;4419;50.882;4.718;2022-08-16T01:57:48;21.20;99.90
13529;DHT22;4419;50.882;4.718;2022-08-16T02:00:14;21.30;99.90
13529;DHT22;4419;50.882;4.718;2022-08-16T02:02:40;21.30;99.90
13529;DHT22;4419;50.882;4.718;2022-08-16T02:05:06;21.40;99.90
13529;DHT22;4419;50.882;4.718;2022-08-16T02:07:32;21.30;99.90
13529;DHT22;4419;50.882;4.718;2022-08-16T02:09:58;21.30;99.90
13529;DHT22;4419;50.882;4.718;2022-08-16T02:12:24;21.20;99.90
13529;DHT22;4419;50.882;4.718;2022-08-16T02:14:50;21.10;99.90
13529;DHT22;4419;50.882;4.718;2022-08-16T02:17:16;21.00;99.90
13529;DHT22;4419;50.882;4.718;2022-08-16T02:19:42;21.00;99.90
13529;DHT22;4419;50.882;4.718;2022-08-16T02:22:09;21.00;99.90
13529;DHT22;4419;50.882;4.718;2022-08-16T02:24:37;21.00;99.90
13529;DHT22;4419;50.882;4.718;2022-08-16T02:27:02;21.00;99.90
13529;DHT22;4419;50.882;4.718;2022-08-16T02:29:28;21.00;99.90
13529;DHT22;4419;50.882;4.718;2022-08-16T02:31:54;21.00;99.90
13529;DHT22;4419;50.882;4.718;2022-08-16T02:34:20;21.00;99.90
13529;DHT22;4419;50.882;4.718;2022-08-16T02:36:45;20.90;99.90
13529;DHT22;4419;50.882;4.718;2022-08-16T02:39:12;20.80;99.90
13529;DHT22;4419;50.882;4.718;2022-08-16T02:41:38;20.90;99.90
13529;DHT22;4419;50.882;4.718;2022-08-16T02:44:05;20.90;99.90
13529;DHT22;4419;50.882;4.718;2022-08-16T02:46:31;20.80;99.90
13529;DHT22;4419;50.882;4.718;2022-08-16T02:48:57;20.90;99.90
13529;DHT22;4419;50.882;4.718;2022-08-16T02:51:23;20.80;99.90
13529;DHT22;4419;50.882;4.718;2022-08-16T02:53:49;20.80;99.90
13529;DHT22;4419;50.882;4.718;2022-08-16T02:56:16;20.70;99.90
13529;DHT22;4419;50.882;4.718;2022-08-16T02:58:43;20.70;99.90
13529;DHT22;4419;50.882;4.718;2022-08-16T03:01:10;20.70;99.90
13529;DHT22;4419;50.882;4.718;2022-08-16T03:03:35;20.70;99.90
13529;DHT22;4419;50.882;4.718;2022-08-16T03:06:01;20.70;99.90
13529;DHT22;4419;50.882;4.718;2022-08-16T03:08:27;20.70;99.90
13529;DHT22;4419;50.882;4.718;2022-08-16T03:10:53;20.70;99.90
13529;DHT22;4419;50.882;4.718;2022-08-16T03:13:38;20.70;99.90
13529;DHT22;4419;50.882;4.718;2022-08-16T03:16:05;20.80;99.90
13529;DHT22;4419;50.882;4.718;2022-08-16T03:18:31;20.70;99.90
13529;DHT22;4419;50.882;4.718;2022-08-16T03:20:56;20.60;99.90
13529;DHT22;4419;50.882;4.718;2022-08-16T03:23:24;20.60;99.90
13529;DHT22;4419;50.882;4.718;2022-08-16T03:25:50;20.50;99.90
13529;DHT22;4419;50.882;4.718;2022-08-16T03:28:15;20.50;99.90
13529;DHT22;4419;50.882;4.718;2022-08-16T03:30:41;20.50;99.90
13529;DHT22;4419;50.882;4.718;2022-08-16T03:33:06;20.50;99.90
13529;DHT22;4419;50.882;4.718;2022-08-16T03:35:33;20.30;99.90
13529;DHT22;4419;50.882;4.718;2022-08-16T03:37:59;20.40;99.90
13529;DHT22;4419;50.882;4.718;2022-08-16T03:40:25;20.40;99.90
13529;DHT22;4419;50.882;4.718;2022-08-16T03:42:52;20.40;99.90
13529;DHT22;4419;50.882;4.718;2022-08-16T03:45:18;20.40;99.90
13529;DHT22;4419;50.882;4.718;2022-08-16T03:47:46;20.40;99.90
13529;DHT22;4419;50.882;4.718;2022-08-16T03:50:12;20.30;99.90
13529;DHT22;4419;50.882;4.718;2022-08-16T03:52:39;20.20;99.90
13529;DHT22;4419;50.882;4.718;2022-08-16T03:55:05;20.30;99.90
13529;DHT22;4419;50.882;4.718;2022-08-16T03:57:31;20.30;99.90
13529;DHT22;4419;50.882;4.718;2022-08-16T03:59:57;20.40;99.90
13529;DHT22;4419;50.882;4.718;2022-08-16T04:02:22;20.40;99.90
13529;DHT22;4419;50.882;4.718;2022-08-16T04:04:48;20.40;99.90
13529;DHT22;4419;50.882;4.718;2022-08-16T04:07:14;20.30;99.90
13529;DHT22;4419;50.882;4.718;2022-08-16T04:09:40;20.30;99.90
13529;DHT22;4419;50.882;4.718;2022-08-16T04:12:06;20.30;99.90
13529;DHT22;4419;50.882;4.718;2022-08-16T04:14:32;20.30;99.90
13529;DHT22;4419;50.882;4.718;2022-08-16T04:16:58;20.20;99.90
13529;DHT22;4419;50.882;4.718;2022-08-16T04:19:25;20.30;99.90
13529;DHT22;4419;50.882;4.718;2022-08-16T04:21:51;20.30;99.90
13529;DHT22;4419;50.882;4.718;2022-08-16T04:24:17;20.30;99.90
13529;DHT22;4419;50.882;4.718;2022-08-16T04:26:43;20.30;99.90
13529;DHT22;4419;50.882;4.718;2022-08-16T04:29:48;20.20;99.90
13529;DHT22;4419;50.882;4.718;2022-08-16T04:32:14;20.30;99.90
13529;DHT22;4419;50.882;4.718;2022-08-16T04:34:59;20.30;99.90
13529;DHT22;4419;50.882;4.718;2022-08-16T04:37:25;20.30;99.90
13529;DHT22;4419;50.882;4.718;2022-08-16T04:39:51;20.30;99.90
13529;DHT22;4419;50.882;4.718;2022-08-16T04:42:17;20.30;99.90
13529;DHT22;4419;50.882;4.718;2022-08-16T04:44:43;20.30;99.90
13529;DHT22;4419;50.882;4.718;2022-08-16T04:47:09;20.30;99.90
13529;DHT22;4419;50.882;4.718;2022-08-16T04:49:34;20.20;99.90
13529;DHT22;4419;50.882;4.718;2022-08-16T04:52:00;20.20;99.90
13529;DHT22;4419;50.882;4.718;2022-08-16T04:54:26;20.10;99.90
13529;DHT22;4419;50.882;4.718;2022-08-16T04:56:51;20.20;99.90
13529;DHT22;4419;50.882;4.718;2022-08-16T04:59:37;20.20;99.90
13529;DHT22;4419;50.882;4.718;2022-08-16T05:02:03;20.20;99.90
13529;DHT22;4419;50.882;4.718;2022-08-16T05:04:28;20.10;99.90
13529;DHT22;4419;50.882;4.718;2022-08-16T05:06:55;20.10;99.90
13529;DHT22;4419;50.882;4.718;2022-08-16T05:09:21;20.20;99.90
13529;DHT22;4419;50.882;4.718;2022-08-16T05:11:47;20.10;99.90
13529;DHT22;4419;50.882;4.718;2022-08-16T05:14:13;20.20;99.90
13529;DHT22;4419;50.882;4.718;2022-08-16T05:16:39;20.20;99.90
13529;DHT22;4419;50.882;4.718;2022-08-16T05:19:05;20.20;99.90
13529;DHT22;4419;50.882;4.718;2022-08-16T05:21:31;20.30;99.90
13529;DHT22;4419;50.882;4.718;2022-08-16T05:23:59;20.40;99.90
13529;DHT22;4419;50.882;4.718;2022-08-16T05:26:26;20.30;99.90
13529;DHT22;4419;50.882;4.718;2022-08-16T05:28:52;20.30;99.90
13529;DHT22;4419;50.882;4.718;2022-08-16T05:31:17;20.30;99.90
13529;DHT22;4419;50.882;4.718;2022-08-16T05:33:43;20.40;99.90
13529;DHT22;4419;50.882;4.718;2022-08-16T05:36:09;20.40;99.90
13529;DHT22;4419;50.882;4.718;2022-08-16T05:38:34;20.50;99.90
13529;DHT22;4419;50.882;4.718;2022-08-16T05:41:00;20.60;99.90
13529;DHT22;4419;50.882;4.718;2022-08-16T05:43:26;20.50;99.90
13529;DHT22;4419;50.882;4.718;2022-08-16T05:45:52;20.50;99.90
13529;DHT22;4419;50.882;4.718;2022-08-16T05:48:18;20.50;99.90
13529;DHT22;4419;50.882;4.718;2022-08-16T05:50:43;20.50;99.90
13529;DHT22;4419;50.882;4.718;2022-08-16T05:53:09;20.60;99.90
13529;DHT22;4419;50.882;4.718;2022-08-16T05:55:35;20.60;99.90
13529;DHT22;4419;50.882;4.718;2022-08-16T05:58:00;20.60;99.90
13529;DHT22;4419;50.882;4.718;2022-08-16T06:00:26;20.60;99.90
13529;DHT22;4419;50.882;4.718;2022-08-16T06:02:51;20.70;99.90
13529;DHT22;4419;50.882;4.718;2022-08-16T06:05:17;20.80;99.90
13529;DHT22;4419;50.882;4.718;2022-08-16T06:07:43;20.80;99.90
13529;DHT22;4419;50.882;4.718;2022-08-16T06:10:09;20.90;99.90
13529;DHT22;4419;50.882;4.718;2022-08-16T06:12:35;21.00;99.90
13529;DHT22;4419;50.882;4.718;2022-08-16T06:15:03;20.90;99.90
13529;DHT22;4419;50.882;4.718;2022-08-16T06:17:29;20.90;99.90
13529;DHT22;4419;50.882;4.718;2022-08-16T06:19:55;21.00;99.90
13529;DHT22;4419;50.882;4.718;2022-08-16T06:22:20;21.10;99.90
13529;DHT22;4419;50.882;4.718;2022-08-16T06:24:46;21.10;99.90
13529;DHT22;4419;50.882;4.718;2022-08-16T06:27:12;21.20;99.90
13529;DHT22;4419;50.882;4.718;2022-08-16T06:29:37;21.30;99.90
13529;DHT22;4419;50.882;4.718;2022-08-16T06:32:03;21.30;99.90
13529;DHT22;4419;50.882;4.718;2022-08-16T06:34:29;21.40;99.90
13529;DHT22;4419;50.882;4.718;2022-08-16T06:36:54;21.40;99.90
13529;DHT22;4419;50.882;4.718;2022-08-16T06:39:20;21.40;99.90
13529;DHT22;4419;50.882;4.718;2022-08-16T06:41:46;21.50;99.90
13529;DHT22;4419;50.882;4.718;2022-08-16T06:44:11;21.50;99.90
13529;DHT22;4419;50.882;4.718;2022-08-16T06:46:37;21.50;99.90
13529;DHT22;4419;50.882;4.718;2022-08-16T06:49:04;21.50;99.90
13529;DHT22;4419;50.882;4.718;2022-08-16T06:51:30;21.50;99.90
13529;DHT22;4419;50.882;4.718;2022-08-16T06:53:56;21.60;99.90
13529;DHT22;4419;50.882;4.718;2022-08-16T06:56:21;21.60;99.90
13529;DHT22;4419;50.882;4.718;2022-08-16T06:58:47;21.60;99.90
13529;DHT22;4419;50.882;4.718;2022-08-16T07:01:13;21.70;99.90
13529;DHT22;4419;50.882;4.718;2022-08-16T07:03:38;21.70;99.90
13529;DHT22;4419;50.882;4.718;2022-08-16T07:06:04;21.70;99.90
13529;DHT22;4419;50.882;4.718;2022-08-16T07:08:30;21.70;99.90
13529;DHT22;4419;50.882;4.718;2022-08-16T07:10:56;21.60;99.90
13529;DHT22;4419;50.882;4.718;2022-08-16T07:13:23;21.70;99.90
13529;DHT22;4419;50.882;4.718;2022-08-16T07:15:49;21.70;99.90
13529;DHT22;4419;50.882;4.718;2022-08-16T07:18:15;21.70;99.90
13529;DHT22;4419;50.882;4.718;2022-08-16T07:20:44;21.80;99.90
13529;DHT22;4419;50.882;4.718;2022-08-16T07:23:10;21.90;99.90
13529;DHT22;4419;50.882;4.718;2022-08-16T07:25:35;22.00;99.90
13529;DHT22;4419;50.882;4.718;2022-08-16T07:28:01;22.10;99.90
13529;DHT22;4419;50.882;4.718;2022-08-16T07:30:27;22.10;99.90
13529;DHT22;4419;50.882;4.718;2022-08-16T07:32:53;22.30;99.90
13529;DHT22;4419;50.882;4.718;2022-08-16T07:35:20;22.30;99.90
13529;DHT22;4419;50.882;4.718;2022-08-16T07:37:45;22.40;99.90
13529;DHT22;4419;50.882;4.718;2022-08-16T07:40:11;22.40;99.90
13529;DHT22;4419;50.882;4.718;2022-08-16T07:42:37;22.50;99.90
13529;DHT22;4419;50.882;4.718;2022-08-16T07:45:04;22.60;99.90
13529;DHT22;4419;50.882;4.718;2022-08-16T07:47:30;22.60;99.50
13529;DHT22;4419;50.882;4.718;2022-08-16T07:49:55;22.70;97.70
13529;DHT22;4419;50.882;4.718;2022-08-16T07:52:21;22.90;98.70
13529;DHT22;4419;50.882;4.718;2022-08-16T07:54:47;23.00;96.70
13529;DHT22;4419;50.882;4.718;2022-08-16T07:57:12;23.10;92.00
13529;DHT22;4419;50.882;4.718;2022-08-16T07:59:38;23.20;90.40
13529;DHT22;4419;50.882;4.718;2022-08-16T08:02:04;23.20;88.30
13529;DHT22;4419;50.882;4.718;2022-08-16T08:04:29;23.30;85.20
13529;DHT22;4419;50.882;4.718;2022-08-16T08:06:57;23.40;79.50
13529;DHT22;4419;50.882;4.718;2022-08-16T08:09:22;23.40;77.50
13529;DHT22;4419;50.882;4.718;2022-08-16T08:11:48;23.50;73.00
13529;DHT22;4419;50.882;4.718;2022-08-16T08:14:14;23.50;69.60
13529;DHT22;4419;50.882;4.718;2022-08-16T08:16:40;23.50;68.00
13529;DHT22;4419;50.882;4.718;2022-08-16T08:19:07;23.60;67.00
13529;DHT22;4419;50.882;4.718;2022-08-16T08:21:34;23.70;68.30
13529;DHT22;4419;50.882;4.718;2022-08-16T08:24:01;23.90;66.30
13529;DHT22;4419;50.882;4.718;2022-08-16T08:26:44;24.00;66.50
13529;DHT22;4419;50.882;4.718;2022-08-16T08:29:09;24.00;64.80
13529;DHT22;4419;50.882;4.718;2022-08-16T08:31:35;24.00;64.80
13529;DHT22;4419;50.882;4.718;2022-08-16T08:34:04;24.10;63.30
13529;DHT22;4419;50.882;4.718;2022-08-16T08:36:32;24.20;59.70
13529;DHT22;4419;50.882;4.718;2022-08-16T08:38:58;24.20;61.10
13529;DHT22;4419;50.882;4.718;2022-08-16T08:41:24;24.20;60.30
13529;DHT22;4419;50.882;4.718;2022-08-16T08:43:53;24.30;63.60
13529;DHT22;4419;50.882;4.718;2022-08-16T08:46:19;24.40;60.20
13529;DHT22;4419;50.882;4.718;2022-08-16T08:48:44;24.60;58.20
13529;DHT22;4419;50.882;4.718;2022-08-16T08:51:11;24.80;57.30
13529;DHT22;4419;50.882;4.718;2022-08-16T08:53:36;24.80;57.80
13529;DHT22;4419;50.882;4.718;2022-08-16T08:56:03;25.00;56.80
13529;DHT22;4419;50.882;4.718;2022-08-16T08:58:29;25.10;54.90
13529;DHT22;4419;50.882;4.718;2022-08-16T09:00:55;25.00;53.60
13529;DHT22;4419;50.882;4.718;2022-08-16T09:03:22;25.10;54.00
13529;DHT22;4419;50.882;4.718;2022-08-16T09:05:47;25.30;53.60
13529;DHT22;4419;50.882;4.718;2022-08-16T09:08:15;25.50;51.70
13529;DHT22;4419;50.882;4.718;2022-08-16T09:10:41;25.60;50.30
13529;DHT22;4419;50.882;4.718;2022-08-16T09:13:07;25.60;49.60
13529;DHT22;4419;50.882;4.718;2022-08-16T09:15:53;25.60;49.50
13529;DHT22;4419;50.882;4.718;2022-08-16T09:18:22;25.70;49.80
13529;DHT22;4419;50.882;4.718;2022-08-16T09:20:48;25.90;47.70
13529;DHT22;4419;50.882;4.718;2022-08-16T09:23:13;25.90;49.00
13529;DHT22;4419;50.882;4.718;2022-08-16T09:25:39;26.10;49.20
13529;DHT22;4419;50.882;4.718;2022-08-16T09:28:05;26.20;49.00
13529;DHT22;4419;50.882;4.718;2022-08-16T09:30:31;26.40;48.90
13529;DHT22;4419;50.882;4.718;2022-08-16T09:33:00;26.60;47.60
13529;DHT22;4419;50.882;4.718;2022-08-16T09:35:26;26.70;46.10
13529;DHT22;4419;50.882;4.718;2022-08-16T09:37:52;26.80;45.70
13529;DHT22;4419;50.882;4.718;2022-08-16T09:40:18;26.90;46.00
13529;DHT22;4419;50.882;4.718;2022-08-16T09:42:43;27.00;45.50
13529;DHT22;4419;50.882;4.718;2022-08-16T09:45:09;27.00;45.90
13529;DHT22;4419;50.882;4.718;2022-08-16T09:47:35;27.20;46.00
13529;DHT22;4419;50.882;4.718;2022-08-16T09:50:06;27.20;46.00
13529;DHT22;4419;50.882;4.718;2022-08-16T09:52:32;27.40;45.90
13529;DHT22;4419;50.882;4.718;2022-08-16T09:55:00;27.50;45.00
13529;DHT22;4419;50.882;4.718;2022-08-16T09:57:27;27.60;44.90
13529;DHT22;4419;50.882;4.718;2022-08-16T09:59:53;27.80;45.10
13529;DHT22;4419;50.882;4.718;2022-08-16T10:02:19;27.90;44.10
13529;DHT22;4419;50.882;4.718;2022-08-16T10:04:44;28.00;43.50
13529;DHT22;4419;50.882;4.718;2022-08-16T10:07:10;27.90;43.20
13529;DHT22;4419;50.882;4.718;2022-08-16T10:09:35;27.90;42.60
13529;DHT22;4419;50.882;4.718;2022-08-16T10:12:01;27.70;43.20
13529;DHT22;4419;50.882;4.718;2022-08-16T10:14:45;27.80;44.50
13529;DHT22;4419;50.882;4.718;2022-08-16T10:17:11;27.60;44.40
13529;DHT22;4419;50.882;4.718;2022-08-16T10:19:37;27.60;43.80
13529;DHT22;4419;50.882;4.718;2022-08-16T10:22:02;27.60;44.10
13529;DHT22;4419;50.882;4.718;2022-08-16T10:24:28;27.50;44.40
13529;DHT22;4419;50.882;4.718;2022-08-16T10:26:54;27.30;44.60
13529;DHT22;4419;50.882;4.718;2022-08-16T10:29:21;27.20;44.90
13529;DHT22;4419;50.882;4.718;2022-08-16T10:31:47;27.00;45.00
13529;DHT22;4419;50.882;4.718;2022-08-16T10:34:13;26.90;44.70
13529;DHT22;4419;50.882;4.718;2022-08-16T10:36:39;26.90;45.20
13529;DHT22;4419;50.882;4.718;2022-08-16T10:39:05;26.80;45.40
13529;DHT22;4419;50.882;4.718;2022-08-16T10:41:31;26.70;45.30
13529;DHT22;4419;50.882;4.718;2022-08-16T10:43:56;26.60;45.90
13529;DHT22;4419;50.882;4.718;2022-08-16T10:46:23;26.60;46.30
13529;DHT22;4419;50.882;4.718;2022-08-16T10:48:49;26.80;46.40
13529;DHT22;4419;50.882;4.718;2022-08-16T10:51:14;26.80;45.80
13529;DHT22;4419;50.882;4.718;2022-08-16T10:53:40;26.90;45.80
13529;DHT22;4419;50.882;4.718;2022-08-16T10:56:07;27.00;45.50
13529;DHT22;4419;50.882;4.718;2022-08-16T10:58:33;27.30;44.10
13529;DHT22;4419;50.882;4.718;2022-08-16T11:00:59;27.60;43.90
13529;DHT22;4419;50.882;4.718;2022-08-16T11:03:25;27.80;43.60
13529;DHT22;4419;50.882;4.718;2022-08-16T11:05:53;28.10;42.50
13529;DHT22;4419;50.882;4.718;2022-08-16T11:08:18;28.40;42.60
13529;DHT22;4419;50.882;4.718;2022-08-16T11:10:44;28.70;41.40
13529;DHT22;4419;50.882;4.718;2022-08-16T11:13:12;28.90;41.00
13529;DHT22;4419;50.882;4.718;2022-08-16T11:15:37;29.10;40.00
13529;DHT22;4419;50.882;4.718;2022-08-16T11:18:03;29.00;39.20
13529;DHT22;4419;50.882;4.718;2022-08-16T11:20:30;29.20;39.20
13529;DHT22;4419;50.882;4.718;2022-08-16T11:22:55;29.20;39.80
13529;DHT22;4419;50.882;4.718;2022-08-16T11:25:24;29.30;38.40
13529;DHT22;4419;50.882;4.718;2022-08-16T11:27:50;29.40;38.20
13529;DHT22;4419;50.882;4.718;2022-08-16T11:30:16;29.00;38.30
13529;DHT22;4419;50.882;4.718;2022-08-16T11:32:42;29.00;38.40
13529;DHT22;4419;50.882;4.718;2022-08-16T11:35:25;29.20;38.10
13529;DHT22;4419;50.882;4.718;2022-08-16T11:37:58;29.40;37.20
13529;DHT22;4419;50.882;4.718;2022-08-16T11:40:25;29.90;37.30
13529;DHT22;4419;50.882;4.718;2022-08-16T11:42:51;29.90;37.20
13529;DHT22;4419;50.882;4.718;2022-08-16T11:45:17;30.00;36.50
13529;DHT22;4419;50.882;4.718;2022-08-16T11:47:43;29.90;36.60
13529;DHT22;4419;50.882;4.718;2022-08-16T11:50:08;30.10;35.80
13529;DHT22;4419;50.882;4.718;2022-08-16T11:52:35;30.10;34.80
13529;DHT22;4419;50.882;4.718;2022-08-16T11:55:01;30.00;34.20
13529;DHT22;4419;50.882;4.718;2022-08-16T11:57:27;29.60;34.60
13529;DHT22;4419;50.882;4.718;2022-08-16T11:59:52;29.50;35.10
13529;DHT22;4419;50.882;4.718;2022-08-16T12:02:18;29.40;35.50
13529;DHT22;4419;50.882;4.718;2022-08-16T12:04:44;29.30;34.80
13529;DHT22;4419;50.882;4.718;2022-08-16T12:07:10;29.20;35.30
13529;DHT22;4419;50.882;4.718;2022-08-16T12:09:36;29.40;35.40
13529;DHT22;4419;50.882;4.718;2022-08-16T12:12:01;29.50;35.30
13529;DHT22;4419;50.882;4.718;2022-08-16T12:14:27;29.80;35.00
13529;DHT22;4419;50.882;4.718;2022-08-16T12:16:53;29.90;34.60
13529;DHT22;4419;50.882;4.718;2022-08-16T12:19:20;30.00;35.00
13529;DHT22;4419;50.882;4.718;2022-08-16T12:21:46;29.90;34.60
13529;DHT22;4419;50.882;4.718;2022-08-16T12:24:12;29.90;34.80
13529;DHT22;4419;50.882;4.718;2022-08-16T12:26:37;29.80;34.70
13529;DHT22;4419;50.882;4.718;2022-08-16T12:29:03;29.60;35.20
13529;DHT22;4419;50.882;4.718;2022-08-16T12:31:29;29.50;35.10
13529;DHT22;4419;50.882;4.718;2022-08-16T12:33:55;29.40;35.30
13529;DHT22;4419;50.882;4.718;2022-08-16T12:36:21;29.40;36.00
13529;DHT22;4419;50.882;4.718;2022-08-16T12:38:47;29.60;35.60
13529;DHT22;4419;50.882;4.718;2022-08-16T12:41:12;29.70;36.30
13529;DHT22;4419;50.882;4.718;2022-08-16T12:43:39;29.60;36.00
13529;DHT22;4419;50.882;4.718;2022-08-16T12:46:07;29.70;35.00
13529;DHT22;4419;50.882;4.718;2022-08-16T12:48:33;29.70;36.00
13529;DHT22;4419;50.882;4.718;2022-08-16T12:51:18;29.80;34.10
13529;DHT22;4419;50.882;4.718;2022-08-16T12:53:47;29.90;34.30
13529;DHT22;4419;50.882;4.718;2022-08-16T12:56:17;29.90;34.00
13529;DHT22;4419;50.882;4.718;2022-08-16T12:58:43;29.60;34.20
13529;DHT22;4419;50.882;4.718;2022-08-16T13:01:11;29.40;34.90
13529;DHT22;4419;50.882;4.718;2022-08-16T13:03:37;29.40;35.50
13529;DHT22;4419;50.882;4.718;2022-08-16T13:06:05;29.30;35.90
13529;DHT22;4419;50.882;4.718;2022-08-16T13:08:30;29.20;36.30
13529;DHT22;4419;50.882;4.718;2022-08-16T13:10:56;29.10;36.30
13529;DHT22;4419;50.882;4.718;2022-08-16T13:13:23;29.10;36.60
13529;DHT22;4419;50.882;4.718;2022-08-16T13:15:53;29.20;37.00
13529;DHT22;4419;50.882;4.718;2022-08-16T13:18:19;29.10;36.40
13529;DHT22;4419;50.882;4.718;2022-08-16T13:20:45;29.00;38.20
13529;DHT22;4419;50.882;4.718;2022-08-16T13:23:11;29.10;37.00
13529;DHT22;4419;50.882;4.718;2022-08-16T13:25:38;29.20;37.00
13529;DHT22;4419;50.882;4.718;2022-08-16T13:28:05;29.30;36.70
13529;DHT22;4419;50.882;4.718;2022-08-16T13:30:33;29.40;37.00
13529;DHT22;4419;50.882;4.718;2022-08-16T13:32:59;29.60;36.90
13529;DHT22;4419;50.882;4.718;2022-08-16T13:35:25;29.70;35.70
13529;DHT22;4419;50.882;4.718;2022-08-16T13:37:50;29.70;36.00
13529;DHT22;4419;50.882;4.718;2022-08-16T13:40:16;29.70;35.20
13529;DHT22;4419;50.882;4.718;2022-08-16T13:42:42;29.90;35.80
13529;DHT22;4419;50.882;4.718;2022-08-16T13:45:09;30.10;34.80
13529;DHT22;4419;50.882;4.718;2022-08-16T13:47:35;30.20;34.40
13529;DHT22;4419;50.882;4.718;2022-08-16T13:50:01;30.50;33.30
13529;DHT22;4419;50.882;4.718;2022-08-16T13:52:27;30.50;34.20
13529;DHT22;4419;50.882;4.718;2022-08-16T13:54:54;30.40;32.60
13529;DHT22;4419;50.882;4.718;2022-08-16T13:57:19;30.40;33.80
13529;DHT22;4419;50.882;4.718;2022-08-16T13:59:45;30.60;32.60
13529;DHT22;4419;50.882;4.718;2022-08-16T14:02:10;30.50;32.50
13529;DHT22;4419;50.882;4.718;2022-08-16T14:04:37;30.50;32.50
13529;DHT22;4419;50.882;4.718;2022-08-16T14:07:04;30.50;33.40
13529;DHT22;4419;50.882;4.718;2022-08-16T14:09:30;30.60;33.90
13529;DHT22;4419;50.882;4.718;2022-08-16T14:11:57;30.70;34.00
13529;DHT22;4419;50.882;4.718;2022-08-16T14:14:24;30.70;33.50
13529;DHT22;4419;50.882;4.718;2022-08-16T14:16:50;30.70;33.40
13529;DHT22;4419;50.882;4.718;2022-08-16T14:19:15;30.90;33.00
13529;DHT22;4419;50.882;4.718;2022-08-16T14:21:46;31.10;34.40
13529;DHT22;4419;50.882;4.718;2022-08-16T14:24:12;31.20;33.00
13529;DHT22;4419;50.882;4.718;2022-08-16T14:26:41;31.30;32.10
13529;DHT22;4419;50.882;4.718;2022-08-16T14:29:07;31.20;32.50
13529;DHT22;4419;50.882;4.718;2022-08-16T14:31:32;31.10;33.50
13529;DHT22;4419;50.882;4.718;2022-08-16T14:33:58;31.00;32.80
13529;DHT22;4419;50.882;4.718;2022-08-16T14:36:24;31.00;32.80
13529;DHT22;4419;50.882;4.718;2022-08-16T14:38:49;31.00;32.70
13529;DHT22;4419;50.882;4.718;2022-08-16T14:41:15;31.00;32.80
13529;DHT22;4419;50.882;4.718;2022-08-16T14:43:41;31.10;33.00
13529;DHT22;4419;50.882;4.718;2022-08-16T14:46:06;31.10;32.90
13529;DHT22;4419;50.882;4.718;2022-08-16T14:48:32;31.10;33.80
13529;DHT22;4419;50.882;4.718;2022-08-16T14:50:57;31.00;33.90
13529;DHT22;4419;50.882;4.718;2022-08-16T14:53:23;31.00;33.30
13529;DHT22;4419;50.882;4.718;2022-08-16T14:55:49;31.10;32.70
13529;DHT22;4419;50.882;4.718;2022-08-16T14:58:15;30.80;32.30
13529;DHT22;4419;50.882;4.718;2022-08-16T15:00:41;30.50;33.70
13529;DHT22;4419;50.882;4.718;2022-08-16T15:03:07;30.80;33.10
13529;DHT22;4419;50.882;4.718;2022-08-16T15:05:35;30.90;33.80
13529;DHT22;4419;50.882;4.718;2022-08-16T15:08:02;31.10;34.10
13529;DHT22;4419;50.882;4.718;2022-08-16T15:10:28;31.20;32.00
13529;DHT22;4419;50.882;4.718;2022-08-16T15:12:54;31.00;31.70
13529;DHT22;4419;50.882;4.718;2022-08-16T15:15:21;31.00;33.40
13529;DHT22;4419;50.882;4.718;2022-08-16T15:17:47;31.30;32.90
13529;DHT22;4419;50.882;4.718;2022-08-16T15:20:13;31.40;32.00
13529;DHT22;4419;50.882;4.718;2022-08-16T15:22:43;31.30;32.00
13529;DHT22;4419;50.882;4.718;2022-08-16T15:25:11;31.40;31.70
13529;DHT22;4419;50.882;4.718;2022-08-16T15:27:37;31.10;31.20
13529;DHT22;4419;50.882;4.718;2022-08-16T15:30:10;30.90;31.40
13529;DHT22;4419;50.882;4.718;2022-08-16T15:32:36;30.60;33.60
13529;DHT22;4419;50.882;4.718;2022-08-16T15:35:02;30.40;32.50
13529;DHT22;4419;50.882;4.718;2022-08-16T15:37:28;30.50;32.50
13529;DHT22;4419;50.882;4.718;2022-08-16T15:39:55;30.40;33.10
13529;DHT22;4419;50.882;4.718;2022-08-16T15:42:21;30.40;32.60
13529;DHT22;4419;50.882;4.718;2022-08-16T15:44:46;30.60;34.30